createdAt,value
2019-05-18T00:00:10.860Z,35.50
2019-05-18T00:02:39.698Z,36.10
2019-05-18T00:05:19.468Z,35.40
2019-05-18T00:07:46.897Z,36.10
2019-05-18T00:10:14.003Z,35.50
2019-05-18T00:12:40.735Z,35.40
2019-05-18T00:15:08.539Z,35.20
2019-05-18T00:17:37.213Z,35.20
2019-05-18T00:20:04.833Z,35.30
2019-05-18T00:22:32.060Z,36.00
2019-05-18T00:24:59.107Z,35.60
2019-05-18T00:27:26.440Z,35.60
2019-05-18T00:29:53.612Z,35.60
2019-05-18T00:32:20.440Z,35.60
2019-05-18T00:34:47.103Z,35.50
2019-05-18T00:37:14.435Z,36.30
2019-05-18T00:39:42.143Z,35.60
2019-05-18T00:42:08.627Z,36.60
2019-05-18T00:44:35.290Z,36.00
2019-05-18T00:47:03.126Z,36.00
2019-05-18T00:49:29.544Z,36.20
2019-05-18T00:51:56.309Z,36.20
2019-05-18T00:54:22.744Z,36.20
2019-05-18T00:56:49.284Z,36.40
2019-05-18T00:59:16.396Z,36.50
2019-05-18T01:01:43.013Z,36.50
2019-05-18T01:04:09.539Z,36.30
2019-05-18T01:06:36.369Z,36.30
2019-05-18T01:09:05.106Z,36.20
2019-05-18T01:11:32.093Z,36.20
2019-05-18T01:13:59.355Z,36.10
2019-05-18T01:16:26.011Z,36.20
2019-05-18T01:18:52.504Z,36.20
2019-05-18T01:21:19.562Z,36.20
2019-05-18T01:23:46.332Z,36.20
2019-05-18T01:26:13.005Z,36.10
2019-05-18T01:28:40.009Z,36.10
2019-05-18T01:31:06.638Z,36.20
2019-05-18T01:33:33.576Z,36.30
2019-05-18T01:36:00.999Z,36.20
2019-05-18T01:38:27.886Z,35.90
2019-05-18T01:40:54.515Z,35.60
2019-05-18T01:43:21.879Z,35.40
2019-05-18T01:45:48.900Z,35.20
2019-05-18T01:48:15.471Z,35.00
2019-05-18T01:50:42.440Z,34.70
2019-05-18T01:53:09.417Z,34.70
2019-05-18T01:55:36.031Z,35.00
2019-05-18T01:58:03.046Z,35.00
2019-05-18T02:00:29.793Z,35.00
2019-05-18T02:02:56.257Z,35.10
2019-05-18T02:05:23.496Z,35.20
2019-05-18T02:07:49.935Z,35.50
2019-05-18T02:10:16.788Z,35.70
2019-05-18T02:12:44.014Z,35.70
2019-05-18T02:15:11.375Z,35.80
2019-05-18T02:17:38.036Z,35.60
2019-05-18T02:20:05.348Z,35.60
2019-05-18T02:22:32.159Z,35.50
2019-05-18T02:24:58.971Z,35.60
2019-05-18T02:27:25.710Z,35.50
2019-05-18T02:29:52.257Z,35.50
2019-05-18T02:32:19.020Z,35.40
2019-05-18T02:34:45.619Z,35.50
2019-05-18T02:37:12.040Z,35.50
2019-05-18T02:39:38.509Z,35.60
2019-05-18T02:42:05.637Z,35.70
2019-05-18T02:44:32.498Z,35.80
2019-05-18T02:46:59.214Z,35.80
2019-05-18T02:49:26.070Z,35.70
2019-05-18T02:51:52.688Z,35.70
2019-05-18T02:54:19.119Z,35.70
2019-05-18T02:56:47.302Z,35.60
2019-05-18T02:59:13.849Z,35.50
2019-05-18T03:01:40.793Z,35.50
2019-05-18T03:04:07.564Z,35.50
2019-05-18T03:06:34.220Z,35.40
2019-05-18T03:09:01.306Z,35.30
2019-05-18T03:11:30.250Z,35.30
2019-05-18T03:13:57.558Z,35.20
2019-05-18T03:16:24.405Z,35.20
2019-05-18T03:19:06.763Z,35.10
2019-05-18T03:21:19.583Z,35.10
2019-05-18T03:23:46.668Z,35.20
2019-05-18T03:26:13.408Z,35.30
2019-05-18T03:28:41.047Z,35.30
2019-05-18T03:31:07.860Z,35.30
2019-05-18T03:33:34.862Z,35.30
2019-05-18T03:36:01.305Z,35.30
2019-05-18T03:38:27.852Z,35.10
2019-05-18T03:40:54.881Z,35.10
2019-05-18T03:43:21.219Z,35.00
2019-05-18T03:45:47.681Z,35.10
2019-05-18T03:48:14.527Z,35.00
2019-05-18T03:50:42.163Z,35.00
2019-05-18T03:53:08.695Z,35.00
2019-05-18T03:55:35.516Z,34.90
2019-05-18T03:58:02.037Z,35.00
2019-05-18T04:00:28.581Z,35.00
2019-05-18T04:02:55.423Z,35.00
2019-05-18T04:05:22.037Z,35.00
2019-05-18T04:07:48.461Z,35.00
2019-05-18T04:10:22.049Z,35.10
2019-05-18T04:12:48.475Z,35.10
2019-05-18T04:15:15.023Z,35.10
2019-05-18T04:17:41.737Z,35.20
2019-05-18T04:20:08.406Z,35.30
2019-05-18T04:22:34.955Z,35.30
2019-05-18T04:25:01.693Z,35.30
2019-05-18T04:27:28.412Z,36.00
2019-05-18T04:29:54.855Z,35.30
2019-05-18T04:32:21.602Z,35.10
2019-05-18T04:34:48.076Z,35.10
2019-05-18T04:37:14.495Z,35.10
2019-05-18T04:39:41.316Z,35.00
2019-05-18T04:42:07.864Z,35.00
2019-05-18T04:44:34.302Z,35.00
2019-05-18T04:47:01.130Z,35.00
2019-05-18T04:49:27.543Z,35.00
2019-05-18T04:51:54.114Z,34.90
2019-05-18T04:54:20.945Z,35.00
2019-05-18T04:56:47.400Z,35.10
2019-05-18T04:59:13.816Z,35.00
2019-05-18T05:01:40.671Z,35.20
2019-05-18T05:04:07.610Z,35.40
2019-05-18T05:06:34.257Z,35.40
2019-05-18T05:09:00.986Z,35.70
2019-05-18T05:11:27.793Z,36.30
2019-05-18T05:13:54.230Z,36.50
2019-05-18T05:16:21.077Z,36.70
2019-05-18T05:18:47.425Z,36.90
2019-05-18T05:21:13.989Z,37.10
2019-05-18T05:23:40.911Z,37.10
2019-05-18T05:26:07.357Z,37.40
2019-05-18T05:28:33.962Z,37.40
2019-05-18T05:31:00.519Z,38.10
2019-05-18T05:33:27.046Z,37.60
2019-05-18T05:35:53.485Z,37.80
2019-05-18T05:38:20.099Z,38.20
2019-05-18T05:40:46.676Z,38.60
2019-05-18T05:43:13.349Z,39.20
2019-05-18T05:45:40.126Z,39.50
2019-05-18T05:48:06.872Z,39.50
2019-05-18T05:50:36.436Z,39.70
2019-05-18T05:53:02.129Z,39.80
2019-05-18T05:55:28.567Z,39.80
2019-05-18T05:57:55.025Z,39.70
2019-05-18T06:00:21.842Z,39.60
2019-05-18T06:02:48.456Z,39.60
2019-05-18T06:05:15.295Z,39.40
2019-05-18T06:07:41.967Z,39.40
2019-05-18T06:10:09.064Z,39.50
2019-05-18T06:12:35.739Z,39.50
2019-05-18T06:15:05.260Z,39.50
2019-05-18T06:17:32.074Z,39.50
2019-05-18T06:19:58.829Z,39.50
2019-05-18T06:22:26.822Z,39.50
2019-05-18T06:24:53.358Z,39.50
2019-05-18T06:27:19.953Z,39.50
2019-05-18T06:29:46.837Z,39.40
2019-05-18T06:32:13.299Z,38.60
2019-05-18T06:34:39.729Z,38.70
2019-05-18T06:37:06.873Z,38.30
2019-05-18T06:39:33.648Z,38.30
2019-05-18T06:42:00.562Z,38.20
2019-05-18T06:44:27.583Z,38.10
2019-05-18T06:46:54.249Z,38.00
2019-05-18T06:49:20.696Z,37.70
2019-05-18T06:51:47.614Z,37.50
2019-05-18T06:54:14.305Z,37.50
2019-05-18T06:56:41.581Z,37.90
2019-05-18T06:59:09.357Z,37.40
2019-05-18T07:01:37.029Z,37.30
2019-05-18T07:04:03.739Z,37.20
2019-05-18T07:06:30.621Z,37.10
2019-05-18T07:08:57.532Z,37.20
2019-05-18T07:11:24.451Z,37.30
2019-05-18T07:13:51.727Z,37.40
2019-05-18T07:16:18.326Z,37.50
2019-05-18T07:18:45.049Z,37.60
2019-05-18T07:21:21.762Z,37.30
2019-05-18T07:23:43.843Z,37.70
2019-05-18T07:26:10.758Z,37.10
2019-05-18T07:28:37.755Z,37.20
2019-05-18T07:31:05.382Z,37.10
2019-05-18T07:33:32.317Z,37.00
2019-05-18T07:35:59.514Z,36.60
2019-05-18T07:38:26.823Z,36.70
2019-05-18T07:40:53.992Z,36.80
2019-05-18T07:43:21.261Z,36.90
2019-05-18T07:45:49.190Z,37.00
2019-05-18T07:48:16.018Z,37.20
2019-05-18T07:50:44.332Z,37.50
2019-05-18T07:53:11.594Z,36.90
2019-05-18T07:55:38.407Z,36.80
2019-05-18T07:58:07.002Z,36.80
2019-05-18T08:00:33.914Z,36.70
2019-05-18T08:03:00.733Z,36.80
2019-05-18T08:05:27.882Z,36.80
2019-05-18T08:07:54.835Z,36.20
2019-05-18T08:10:33.515Z,35.80
2019-05-18T08:13:00.154Z,35.70
2019-05-18T08:15:26.963Z,35.20
2019-05-18T08:17:54.972Z,34.40
2019-05-18T08:20:21.842Z,34.10
2019-05-18T08:22:48.566Z,34.40
2019-05-18T08:25:15.641Z,34.10
2019-05-18T08:27:42.539Z,33.90
2019-05-18T08:30:09.688Z,34.20
2019-05-18T08:32:36.640Z,34.10
2019-05-18T08:35:04.948Z,33.90
2019-05-18T08:37:31.657Z,33.30
2019-05-18T08:39:59.540Z,32.70
2019-05-18T08:42:27.011Z,32.00
2019-05-18T08:44:53.964Z,32.30
2019-05-18T08:47:23.803Z,32.20
2019-05-18T08:49:52.951Z,31.90
2019-05-18T08:52:20.100Z,31.80
2019-05-18T08:54:47.288Z,32.00
2019-05-18T08:57:14.902Z,32.80
2019-05-18T08:59:42.515Z,32.10
2019-05-18T09:02:09.818Z,31.50
2019-05-18T09:04:36.460Z,31.30
2019-05-18T09:07:04.350Z,31.20
2019-05-18T09:09:33.551Z,31.90
2019-05-18T09:12:00.737Z,31.30
2019-05-18T09:14:27.491Z,30.40
2019-05-18T09:16:54.716Z,30.70
2019-05-18T09:19:21.650Z,30.60
2019-05-18T09:21:48.408Z,30.70
2019-05-18T09:24:15.438Z,30.60
2019-05-18T09:26:55.544Z,30.80
2019-05-18T09:29:22.466Z,30.40
2019-05-18T09:31:49.430Z,30.00
2019-05-18T09:34:16.321Z,29.90
2019-05-18T09:36:43.478Z,29.50
2019-05-18T09:39:10.525Z,29.70
2019-05-18T09:41:37.287Z,29.70
2019-05-18T09:44:04.137Z,30.10
2019-05-18T09:46:30.766Z,29.30
2019-05-18T09:48:57.554Z,29.70
2019-05-18T09:51:24.508Z,29.60
2019-05-18T09:53:52.070Z,29.30
2019-05-18T09:56:18.622Z,28.90
2019-05-18T09:58:45.379Z,28.90
2019-05-18T10:01:11.879Z,29.20
2019-05-18T10:03:38.428Z,29.20
2019-05-18T10:06:05.420Z,28.70
2019-05-18T10:08:32.142Z,28.60
2019-05-18T10:10:59.060Z,28.70
2019-05-18T10:13:26.361Z,28.80
2019-05-18T10:15:53.066Z,28.80
2019-05-18T10:18:21.913Z,28.80
2019-05-18T10:20:49.119Z,28.50
2019-05-18T10:23:15.654Z,28.50
2019-05-18T10:25:42.194Z,27.90
2019-05-18T10:28:09.431Z,27.70
2019-05-18T10:30:36.991Z,28.10
2019-05-18T10:33:04.094Z,27.20
2019-05-18T10:35:31.316Z,26.70
2019-05-18T10:37:58.050Z,27.10
2019-05-18T10:40:25.352Z,26.20
2019-05-18T10:42:52.878Z,26.90
2019-05-18T10:45:20.475Z,26.90
2019-05-18T10:47:48.068Z,26.50
2019-05-18T10:50:15.141Z,26.60
2019-05-18T10:52:42.044Z,26.30
2019-05-18T10:55:09.107Z,26.20
2019-05-18T10:57:38.725Z,26.30
2019-05-18T11:00:07.991Z,26.60
2019-05-18T11:02:34.923Z,26.50
2019-05-18T11:05:02.070Z,26.90
2019-05-18T11:07:29.189Z,26.60
2019-05-18T11:09:55.867Z,26.40
2019-05-18T11:12:22.882Z,26.20
2019-05-18T11:14:49.824Z,26.20
2019-05-18T11:17:16.612Z,26.30
2019-05-18T11:19:43.605Z,26.30
2019-05-18T11:22:10.298Z,26.50
2019-05-18T11:24:37.894Z,26.70
2019-05-18T11:27:05.716Z,26.40
2019-05-18T11:29:32.307Z,25.80
2019-05-18T11:31:59.463Z,25.90
2019-05-18T11:34:27.221Z,25.60
2019-05-18T11:36:53.799Z,25.80
2019-05-18T11:39:20.318Z,25.40
2019-05-18T11:41:47.073Z,24.40
2019-05-18T11:44:13.745Z,24.50
2019-05-18T11:46:40.187Z,25.10
2019-05-18T11:49:07.098Z,25.40
2019-05-18T11:51:33.876Z,25.40
2019-05-18T11:54:00.454Z,25.50
2019-05-18T11:56:27.841Z,24.30
2019-05-18T11:58:54.375Z,24.80
2019-05-18T12:01:21.132Z,24.10
2019-05-18T12:03:47.901Z,23.10
2019-05-18T12:06:14.437Z,23.90
2019-05-18T12:08:40.886Z,24.20
2019-05-18T12:11:07.857Z,24.00
2019-05-18T12:13:34.469Z,23.60
2019-05-18T12:16:01.176Z,24.00
2019-05-18T12:18:28.319Z,24.50
2019-05-18T12:20:55.020Z,23.70
2019-05-18T12:23:21.679Z,23.50
2019-05-18T12:25:50.736Z,23.30
2019-05-18T12:28:18.699Z,23.60
2019-05-18T12:30:45.415Z,24.00
2019-05-18T12:33:12.520Z,24.40
2019-05-18T12:35:39.535Z,23.90
2019-05-18T12:38:06.689Z,24.10
2019-05-18T12:40:33.454Z,24.20
2019-05-18T12:43:03.064Z,24.60
2019-05-18T12:45:29.892Z,24.40
2019-05-18T12:47:58.460Z,24.20
2019-05-18T12:50:26.746Z,24.20
2019-05-18T12:52:54.698Z,23.90
2019-05-18T12:55:22.268Z,24.10
2019-05-18T12:57:48.969Z,24.10
2019-05-18T13:00:16.430Z,24.50
2019-05-18T13:02:43.296Z,24.30
2019-05-18T13:05:11.097Z,25.10
2019-05-18T13:07:41.004Z,29.00
2019-05-18T13:10:14.614Z,29.90
2019-05-18T13:12:41.813Z,30.60
2019-05-18T13:15:10.256Z,31.60
2019-05-18T13:17:37.312Z,32.40
2019-05-18T13:20:06.814Z,33.60
2019-05-18T13:22:33.730Z,34.10
2019-05-18T13:25:00.795Z,34.60
2019-05-18T13:27:38.918Z,34.80
2019-05-18T13:29:56.779Z,35.40
2019-05-18T13:32:24.074Z,36.00
2019-05-18T13:34:50.585Z,36.00
2019-05-18T13:37:17.335Z,36.60
2019-05-18T13:39:45.356Z,37.20
2019-05-18T13:42:12.729Z,38.20
2019-05-18T13:44:40.019Z,38.70
2019-05-18T13:47:07.441Z,39.10
2019-05-18T13:49:34.436Z,39.10
2019-05-18T13:52:01.384Z,38.70
2019-05-18T13:54:29.919Z,36.60
2019-05-18T13:56:58.359Z,37.00
2019-05-18T13:59:25.702Z,37.00
2019-05-18T14:01:55.078Z,36.20
2019-05-18T14:04:22.483Z,36.30
2019-05-18T14:06:49.543Z,36.60
2019-05-18T14:09:17.388Z,36.30
2019-05-18T14:11:44.645Z,35.50
2019-05-18T14:14:12.421Z,34.80
2019-05-18T14:16:39.923Z,33.80
2019-05-18T14:19:07.517Z,33.70
2019-05-18T14:21:34.413Z,33.60
2019-05-18T14:24:02.129Z,33.60
2019-05-18T14:26:29.487Z,33.60
2019-05-18T14:28:56.634Z,33.60
2019-05-18T14:31:24.666Z,33.70
2019-05-18T14:33:51.679Z,33.50
2019-05-18T14:36:18.603Z,32.40
2019-05-18T14:38:46.168Z,33.10
2019-05-18T14:41:13.531Z,34.00
2019-05-18T14:43:40.668Z,34.50
2019-05-18T14:46:08.125Z,33.90
2019-05-18T14:48:35.308Z,33.60
2019-05-18T14:51:02.542Z,33.60
2019-05-18T14:53:29.782Z,33.40
2019-05-18T14:55:56.939Z,32.80
2019-05-18T14:58:23.922Z,32.70
2019-05-18T15:00:51.088Z,31.90
2019-05-18T15:03:19.332Z,32.00
2019-05-18T15:05:46.568Z,31.30
2019-05-18T15:08:14.247Z,31.10
2019-05-18T15:10:41.433Z,30.70
2019-05-18T15:13:08.899Z,30.00
2019-05-18T15:15:36.298Z,29.70
2019-05-18T15:18:03.414Z,29.90
2019-05-18T15:20:30.660Z,30.20
2019-05-18T15:22:58.052Z,30.00
2019-05-18T15:25:25.203Z,29.70
2019-05-18T15:27:53.409Z,29.10
2019-05-18T15:30:21.150Z,28.70
2019-05-18T15:32:48.814Z,28.00
2019-05-18T15:35:16.273Z,27.80
2019-05-18T15:37:43.813Z,28.30
2019-05-18T15:40:11.176Z,28.20
2019-05-18T15:42:38.225Z,29.10
2019-05-18T15:45:05.841Z,29.70
2019-05-18T15:47:33.255Z,30.20
2019-05-18T15:50:00.397Z,30.00
2019-05-18T15:52:27.511Z,30.00
2019-05-18T15:54:54.488Z,30.10
2019-05-18T15:57:21.366Z,30.80
2019-05-18T15:59:48.330Z,31.10
2019-05-18T16:02:15.560Z,31.10
2019-05-18T16:04:42.521Z,30.80
2019-05-18T16:07:09.734Z,30.40
2019-05-18T16:09:36.610Z,30.60
2019-05-18T16:12:04.042Z,30.80
2019-05-18T16:14:32.595Z,31.10
2019-05-18T16:16:59.568Z,31.30
2019-05-18T16:19:26.168Z,31.20
2019-05-18T16:21:54.657Z,31.30
2019-05-18T16:24:22.970Z,31.10
2019-05-18T16:26:58.221Z,30.90
2019-05-18T16:29:26.714Z,31.60
2019-05-18T16:31:54.485Z,32.20
2019-05-18T16:34:23.847Z,32.50
2019-05-18T16:36:52.743Z,32.90
2019-05-18T16:39:21.495Z,33.60
2019-05-18T16:41:50.267Z,33.90
2019-05-18T16:44:18.317Z,34.30
2019-05-18T16:46:45.553Z,35.10
2019-05-18T16:49:13.325Z,34.50
2019-05-18T16:51:42.224Z,34.40
2019-05-18T16:54:10.515Z,34.30
2019-05-18T16:56:42.409Z,34.40
2019-05-18T16:59:10.098Z,34.40
2019-05-18T17:01:38.918Z,35.00
2019-05-18T17:04:06.590Z,35.80
2019-05-18T17:06:37.894Z,36.10
2019-05-18T17:09:07.356Z,36.30
2019-05-18T17:11:36.001Z,36.50
2019-05-18T17:14:04.400Z,36.80
2019-05-18T17:16:31.762Z,37.00
2019-05-18T17:18:59.035Z,37.30
2019-05-18T17:21:26.318Z,37.50
2019-05-18T17:23:54.326Z,37.60
2019-05-18T17:26:21.825Z,37.90
2019-05-18T17:28:51.042Z,38.30
2019-05-18T17:31:31.457Z,38.50
2019-05-18T17:34:02.514Z,38.70
2019-05-18T17:36:32.321Z,38.80
2019-05-18T17:39:00.082Z,38.80
2019-05-18T17:41:28.745Z,38.90
2019-05-18T17:43:55.920Z,38.80
2019-05-18T17:46:24.648Z,38.70
2019-05-18T17:48:52.268Z,38.70
2019-05-18T17:51:19.824Z,38.60
2019-05-18T17:53:49.674Z,38.40
2019-05-18T17:56:16.792Z,38.30
2019-05-18T17:58:44.034Z,38.50
2019-05-18T18:01:12.825Z,38.30
2019-05-18T18:03:41.935Z,38.00
2019-05-18T18:06:09.617Z,37.80
2019-05-18T18:08:37.148Z,37.70
2019-05-18T18:11:05.695Z,37.70
2019-05-18T18:13:32.776Z,37.50
2019-05-18T18:16:03.260Z,37.50
2019-05-18T18:18:34.636Z,37.50
2019-05-18T18:21:02.761Z,37.90
2019-05-18T18:23:31.018Z,37.30
2019-05-18T18:25:58.785Z,38.10
2019-05-18T18:28:45.615Z,37.30
2019-05-18T18:31:12.452Z,37.40
2019-05-18T18:33:39.274Z,38.10
2019-05-18T18:36:06.456Z,37.50
2019-05-18T18:38:34.080Z,37.60
2019-05-18T18:41:01.712Z,37.50
2019-05-18T18:43:28.640Z,37.50
2019-05-18T18:45:55.528Z,37.50
2019-05-18T18:48:26.282Z,37.40
2019-05-18T18:50:52.746Z,37.50
2019-05-18T18:53:20.711Z,37.30
2019-05-18T18:55:48.285Z,37.00
2019-05-18T18:58:16.668Z,37.00
2019-05-18T19:00:44.717Z,36.60
2019-05-18T19:03:11.696Z,36.60
2019-05-18T19:05:39.912Z,36.60
2019-05-18T19:08:07.010Z,37.40
2019-05-18T19:10:38.626Z,36.70
2019-05-18T19:13:06.475Z,36.70
2019-05-18T19:15:34.946Z,36.60
2019-05-18T19:18:01.935Z,36.80
2019-05-18T19:20:30.322Z,36.80
2019-05-18T19:22:58.504Z,36.90
2019-05-18T19:25:25.524Z,37.00
2019-05-18T19:27:55.282Z,37.10
2019-05-18T19:30:23.044Z,37.30
2019-05-18T19:32:51.373Z,37.20
2019-05-18T19:35:18.111Z,37.30
2019-05-18T19:37:45.008Z,38.10
2019-05-18T19:40:12.455Z,37.40
2019-05-18T19:42:39.380Z,37.50
2019-05-18T19:45:07.842Z,37.60
2019-05-18T19:47:34.796Z,37.50
2019-05-18T19:50:01.602Z,37.60
2019-05-18T19:52:29.297Z,37.50
2019-05-18T19:54:58.663Z,37.50
2019-05-18T19:57:25.799Z,37.60
2019-05-18T19:59:52.976Z,37.70
2019-05-18T20:02:20.289Z,37.80
2019-05-18T20:05:05.658Z,37.90
2019-05-18T20:07:17.317Z,37.90
2019-05-18T20:09:44.715Z,38.00
2019-05-18T20:12:12.153Z,38.00
2019-05-18T20:14:39.619Z,37.80
2019-05-18T20:17:07.540Z,37.80
2019-05-18T20:19:39.242Z,37.60
2019-05-18T20:22:04.837Z,37.70
2019-05-18T20:24:32.305Z,38.40
2019-05-18T20:26:59.859Z,37.60
2019-05-18T20:29:27.447Z,37.70
2019-05-18T20:31:54.790Z,37.80
2019-05-18T20:34:22.490Z,37.80
2019-05-18T20:36:50.800Z,38.10
2019-05-18T20:39:18.098Z,38.20
2019-05-18T20:41:46.375Z,38.30
2019-05-18T20:44:14.124Z,38.50
2019-05-18T20:46:42.754Z,38.50
2019-05-18T20:49:11.863Z,38.60
2019-05-18T20:51:39.660Z,38.70
2019-05-18T20:54:07.579Z,38.80
2019-05-18T20:56:35.089Z,38.80
2019-05-18T20:59:02.765Z,38.90
2019-05-18T21:01:32.771Z,38.80
2019-05-18T21:04:01.953Z,38.70
2019-05-18T21:06:29.630Z,38.90
2019-05-18T21:08:59.108Z,38.80
2019-05-18T21:11:26.633Z,38.70
2019-05-18T21:13:57.674Z,38.70
2019-05-18T21:16:37.721Z,38.80
2019-05-18T21:19:06.470Z,38.80
2019-05-18T21:21:35.029Z,38.80
2019-05-18T21:24:04.637Z,38.80
2019-05-18T21:26:32.049Z,38.80
2019-05-18T21:29:00.850Z,38.80
2019-05-18T21:31:29.062Z,38.80
2019-05-18T21:33:57.104Z,38.90
2019-05-18T21:36:24.342Z,38.90
2019-05-18T21:38:54.375Z,39.00
2019-05-18T21:41:22.602Z,39.10
2019-05-18T21:43:49.801Z,39.10
2019-05-18T21:46:17.127Z,39.10
2019-05-18T21:48:45.226Z,39.20
2019-05-18T21:51:22.689Z,39.00
2019-05-18T21:53:49.939Z,39.20
2019-05-18T21:56:19.011Z,39.20
2019-05-18T21:58:48.245Z,39.20
2019-05-18T22:01:16.316Z,39.20
2019-05-18T22:03:47.448Z,39.40
2019-05-18T22:06:12.306Z,39.50
2019-05-18T22:08:39.454Z,39.60
2019-05-18T22:11:06.273Z,39.80
2019-05-18T22:13:33.216Z,40.00
2019-05-18T22:16:00.368Z,39.90
2019-05-18T22:18:27.122Z,39.80
2019-05-18T22:20:53.798Z,39.90
2019-05-18T22:23:23.240Z,40.10
2019-05-18T22:25:57.059Z,39.90
2019-05-18T22:28:23.074Z,39.90
2019-05-18T22:30:50.518Z,40.00
2019-05-18T22:33:17.331Z,39.70
2019-05-18T22:35:44.651Z,39.70
2019-05-18T22:38:11.783Z,39.60
2019-05-18T22:40:38.610Z,39.60
2019-05-18T22:43:05.238Z,39.50
2019-05-18T22:45:32.436Z,39.60
2019-05-18T22:47:59.455Z,39.50
2019-05-18T22:50:26.268Z,39.50
2019-05-18T22:52:53.144Z,39.50
2019-05-18T22:55:22.286Z,39.60
2019-05-18T22:57:49.396Z,39.70
2019-05-18T23:00:17.212Z,39.70
2019-05-18T23:02:44.580Z,39.60
2019-05-18T23:05:11.461Z,39.60
2019-05-18T23:07:38.437Z,39.70
2019-05-18T23:10:06.069Z,39.70
2019-05-18T23:12:32.639Z,39.70
2019-05-18T23:14:59.474Z,39.70
2019-05-18T23:17:26.796Z,39.80
2019-05-18T23:19:53.987Z,39.80
2019-05-18T23:22:21.136Z,39.90
2019-05-18T23:24:48.794Z,40.40
2019-05-18T23:27:15.350Z,39.90
2019-05-18T23:29:42.242Z,40.00
2019-05-18T23:32:08.851Z,39.90
2019-05-18T23:34:36.483Z,40.00
2019-05-18T23:37:03.607Z,40.20
2019-05-18T23:39:30.810Z,40.20
2019-05-18T23:41:57.658Z,40.20
2019-05-18T23:44:24.982Z,40.30
2019-05-18T23:46:52.426Z,40.30
2019-05-18T23:49:19.506Z,40.30
2019-05-18T23:51:46.324Z,40.20
2019-05-18T23:54:13.248Z,40.30
2019-05-18T23:56:40.296Z,40.30
2019-05-18T23:59:07.029Z,40.20
